Time;durP1;ratioP1;P1;durP2;ratioP2;P2;SDS_P1;SDS_P2;PMS_P1;PMS_P2;Temp;Humidity;BMP_temperature;BMP_pressure;BME280_temperature;BME280_humidity;BME280_pressure;Samples;Min_cycle;Max_cycle;Signal;HPM_P1;HPM_P2
2021/03/21 00:01:41;;;;;;;6.07;2.00;;;;;;;3.02;100.00;100835.31;5044722;28;20035;-81
2021/03/21 00:04:07;;;;;;;6.68;2.22;;;;;;;3.04;100.00;100828.47;5044208;28;20036;-81
2021/03/21 00:06:32;;;;;;;4.88;1.98;;;;;;;3.06;100.00;100833.66;5044381;28;20029;-82
2021/03/21 00:08:57;;;;;;;6.45;2.60;;;;;;;3.08;100.00;100826.84;5062975;28;20111;-81
2021/03/21 00:11:23;;;;;;;7.03;2.05;;;;;;;3.05;100.00;100817.41;5044930;28;20039;-81
2021/03/21 00:13:48;;;;;;;4.65;2.17;;;;;;;3.05;100.00;100817.41;5045592;28;20092;-81
2021/03/21 00:16:15;;;;;;;5.40;2.20;;;;;;;3.07;100.00;100810.59;5045796;28;20116;-81
2021/03/21 00:18:41;;;;;;;6.88;2.40;;;;;;;3.10;100.00;100809.78;5044955;28;20021;-81
2021/03/21 00:21:09;;;;;;;5.22;2.20;;;;;;;3.10;100.00;100804.66;5045301;28;20025;-81
2021/03/21 00:23:34;;;;;;;5.22;2.13;;;;;;;3.12;100.00;100810.69;5063805;28;20055;-82
2021/03/21 00:26:00;;;;;;;5.93;2.03;;;;;;;3.12;100.00;100810.69;5045430;28;20021;-82
2021/03/21 00:28:29;;;;;;;4.38;1.83;;;;;;;3.13;100.00;100802.16;5046245;28;20021;-82
2021/03/21 00:30:55;;;;;;;6.03;2.05;;;;;;;3.15;100.00;100798.78;5047307;28;20036;-82
2021/03/21 00:33:27;;;;;;;4.80;1.50;;;;;;;3.16;100.00;100776.56;5046129;28;20025;-81
2021/03/21 00:35:54;;;;;;;5.75;2.30;;;;;;;3.17;100.00;100794.56;5043225;28;20020;-81
2021/03/21 00:38:23;;;;;;;4.75;2.05;;;;;;;3.17;100.00;100799.69;5045434;28;20047;-82
2021/03/21 00:40:50;;;;;;;4.65;1.77;;;;;;;3.20;100.00;100788.59;5062803;28;20055;-82
2021/03/21 00:43:16;;;;;;;6.07;2.00;;;;;;;3.22;100.00;100792.03;5043717;28;20036;-81
2021/03/21 00:45:41;;;;;;;6.88;2.17;;;;;;;3.20;100.00;100786.91;5045281;28;20025;-81
2021/03/21 00:48:16;;;;;;;6.30;2.50;;;;;;;3.26;100.00;100778.44;5061819;28;20040;-82
2021/03/21 00:50:42;;;;;;;6.93;2.20;;;;;;;3.25;100.00;100769.03;5044922;28;20503;-82
2021/03/21 00:53:07;;;;;;;6.63;2.20;;;;;;;3.22;100.00;100766.41;5062709;28;20033;-82
2021/03/21 00:55:33;;;;;;;3.95;1.67;;;;;;;3.24;100.00;100749.38;5044403;28;20464;-81
2021/03/21 00:57:58;;;;;;;6.28;2.33;;;;;;;3.23;100.00;100752.75;5044663;28;20025;-81
2021/03/21 01:00:28;;;;;;;4.90;2.10;;;;;;;3.27;100.00;100751.13;5045417;28;20036;-81
2021/03/21 01:02:53;;;;;;;7.55;2.42;;;;;;;3.28;100.00;100737.47;5044796;28;20366;-81
2021/03/21 01:05:23;;;;;;;5.07;2.08;;;;;;;3.27;100.00;100731.47;5044319;28;20031;-81
2021/03/21 01:07:52;;;;;;;6.35;2.72;;;;;;;3.28;100.00;100724.63;5062866;28;20017;-81
2021/03/21 01:10:23;;;;;;;5.53;2.25;;;;;;;3.28;100.00;100722.06;5043377;28;20016;-81
2021/03/21 01:12:51;;;;;;;4.82;2.15;;;;;;;3.28;100.00;100710.13;5060716;28;20035;-81
2021/03/21 01:15:17;;;;;;;7.93;2.53;;;;;;;3.31;100.00;100720.41;5061796;28;20092;-81
2021/03/21 01:17:42;;;;;;;5.72;2.30;;;;;;;3.29;100.00;100710.97;5043975;28;20047;-81
2021/03/21 01:20:08;;;;;;;7.20;2.38;;;;;;;3.31;100.00;100710.16;5043260;28;20033;-81
2021/03/21 01:22:33;;;;;;;5.05;2.58;;;;;;;3.31;100.00;100705.03;5061509;28;20107;-81
2021/03/21 01:24:58;;;;;;;7.68;3.00;;;;;;;3.35;100.00;100706.78;5044013;28;20025;-81
2021/03/21 01:27:23;;;;;;;6.10;2.83;;;;;;;3.38;100.00;100709.38;5043636;28;20480;-81
2021/03/21 01:29:49;;;;;;;6.75;3.03;;;;;;;3.38;100.00;100711.09;5044106;28;20500;-81
2021/03/21 01:32:14;;;;;;;9.00;3.08;;;;;;;3.40;100.00;100697.47;5043877;28;20032;-81
2021/03/21 01:34:39;;;;;;;7.13;3.17;;;;;;;3.45;100.00;100700.09;5043220;28;20032;-81
2021/03/21 01:37:05;;;;;;;8.60;3.33;;;;;;;3.46;100.00;100697.53;5044100;28;20021;-81
2021/03/21 01:39:30;;;;;;;9.13;3.75;;;;;;;3.50;100.00;100710.41;5044445;28;20021;-81
2021/03/21 01:42:02;;;;;;;8.07;3.80;;;;;;;3.54;100.00;100699.34;5062321;28;20554;-82
2021/03/21 01:44:27;;;;;;;9.32;3.60;;;;;;;3.55;100.00;100698.50;5044009;28;20032;-81
2021/03/21 01:46:53;;;;;;;11.20;4.18;;;;;;;3.55;100.00;100683.13;5061838;28;20025;-82
2021/03/21 01:49:40;;;;;;;8.60;3.93;;;;;;;3.60;100.00;100673.75;5063086;28;20523;-82
2021/03/21 01:52:07;;;;;;;8.23;4.07;;;;;;;3.62;100.00;100674.66;5062139;28;20259;-82
2021/03/21 01:54:33;;;;;;;11.02;3.72;;;;;;;3.60;100.00;100676.34;5045159;28;20021;-82
2021/03/21 01:56:59;;;;;;;10.50;4.03;;;;;;;3.62;100.00;100670.38;5045925;28;20017;-82
2021/03/21 01:59:28;;;;;;;11.82;4.63;;;;;;;3.59;100.00;100667.78;5045482;28;20112;-82
2021/03/21 02:01:56;;;;;;;9.50;4.38;;;;;;;3.62;100.00;100662.69;5064988;28;20254;-82
2021/03/21 02:04:22;;;;;;;8.75;4.32;;;;;;;3.63;100.00;100660.97;5050395;28;20051;-82
2021/03/21 02:07:13;;;;;;;12.13;4.05;;;;;;;3.60;100.00;100645.56;5070409;28;20415;-81
2021/03/21 02:09:49;;;;;;;12.63;4.68;;;;;;;3.63;100.00;100655.84;5050683;28;20021;-81
2021/03/21 02:12:31;;;;;;;8.68;4.32;;;;;;;3.65;100.00;100649.91;5071381;28;20029;-81
2021/03/21 02:15:06;;;;;;;7.63;3.45;;;;;;;3.66;100.00;100645.63;5052314;28;20033;-82
2021/03/21 02:17:38;;;;;;;;;;;;;;;3.65;100.00;100649.91;5053773;28;20033;-82
2021/03/21 02:20:15;;;;;;;6.82;3.22;;;;;;;3.69;100.00;100650.78;5050381;28;19919;-82
2021/03/21 02:23:05;;;;;;;7.72;3.25;;;;;;;3.72;100.00;100639.72;5052917;28;20088;-82
2021/03/21 02:25:46;;;;;;;7.38;3.20;;;;;;;3.74;100.00;100638.03;5070871;28;20060;-82
2021/03/21 02:28:31;;;;;;;7.20;2.95;;;;;;;3.75;100.00;100635.47;5064161;28;20025;-81
2021/03/21 02:31:04;;;;;;;7.40;2.85;;;;;;;3.77;100.00;100631.22;5045636;28;20079;-82
2021/03/21 02:33:48;;;;;;;8.43;3.27;;;;;;;3.77;100.00;100633.78;5044562;28;20025;-82
2021/03/21 02:36:26;;;;;;;9.73;2.67;;;;;;;3.79;100.00;100633.81;5042377;28;20293;-82
2021/03/21 02:38:58;;;;;;;6.57;2.13;;;;;;;3.79;100.00;100629.56;5039469;28;20035;-82
2021/03/21 02:41:33;;;;;;;7.97;2.35;;;;;;;3.84;100.00;100635.56;5040316;28;20035;-82
2021/03/21 02:44:06;;;;;;;5.90;2.33;;;;;;;3.83;100.00;100633.00;5058629;28;20451;-82
2021/03/21 02:46:37;;;;;;;5.32;2.13;;;;;;;3.81;100.00;100626.97;5057675;28;20051;-81
2021/03/21 02:49:16;;;;;;;5.63;1.77;;;;;;;3.84;100.00;100620.19;5057664;28;20388;-81
2021/03/21 02:51:48;;;;;;;5.38;1.75;;;;;;;3.84;100.00;100620.19;5040832;28;20017;-82
2021/03/21 02:54:23;;;;;;;6.43;1.80;;;;;;;3.84;100.00;100625.31;5041367;28;20032;-81
2021/03/21 02:56:52;;;;;;;8.57;1.80;;;;;;;3.84;100.00;100609.06;5059254;28;20070;-81
2021/03/21 02:59:24;;;;;;;4.18;1.27;;;;;;;3.82;100.00;100601.34;5043808;28;20021;-81
2021/03/21 03:01:58;;;;;;;6.28;1.77;;;;;;;3.83;100.00;100591.94;5047613;28;20021;-81
2021/03/21 03:04:29;;;;;;;4.77;1.33;;;;;;;3.84;100.00;100583.41;5060802;28;20025;-81
2021/03/21 03:07:02;;;;;;;5.43;1.55;;;;;;;3.83;100.00;100581.69;5060815;28;20063;-81
2021/03/21 03:09:38;;;;;;;5.93;1.90;;;;;;;3.81;100.00;100575.69;5060588;28;20039;-81
2021/03/21 03:12:13;;;;;;;6.35;1.90;;;;;;;3.81;100.00;100588.50;5042808;28;20028;-81
2021/03/21 03:14:41;;;;;;;6.35;1.98;;;;;;;3.79;100.00;100580.81;5042092;28;20494;-82
2021/03/21 03:17:18;;;;;;;4.70;2.00;;;;;;;3.78;100.00;100583.34;5060782;28;20100;-81
2021/03/21 03:20:36;;;;;;;5.63;1.52;;;;;;;3.72;100.00;100573.88;5042506;28;20116;-82
2021/03/21 03:23:21;;;;;;;10.32;2.03;;;;;;;3.73;100.00;100575.63;4977857;28;20039;-81
2021/03/21 03:26:09;;;;;;;6.57;2.13;;;;;;;3.74;100.00;100568.78;5059381;28;20025;-82
2021/03/21 03:28:48;;;;;;;6.85;1.58;;;;;;;3.69;100.00;100561.03;5042562;28;20028;-81
2021/03/21 03:31:19;;;;;;;7.00;1.60;;;;;;;3.69;100.00;100554.22;5060948;28;20035;-82
2021/03/21 03:33:44;;;;;;;8.93;2.63;;;;;;;3.69;100.00;100543.06;5060703;28;20107;-81
2021/03/21 03:36:13;;;;;;;6.00;1.75;;;;;;;3.66;100.00;100550.72;5041969;28;20051;-81
2021/03/21 03:38:41;;;;;;;6.40;1.63;;;;;;;3.65;100.00;100544.75;5060026;28;20061;-81
2021/03/21 03:41:13;;;;;;;10.57;2.10;;;;;;;3.64;100.00;100550.72;5061251;28;20031;-81
2021/03/21 03:44:01;;;;;;;10.82;2.10;;;;;;;3.62;100.00;100538.72;5042938;28;20047;-81
2021/03/21 03:46:36;;;;;;;8.88;2.08;;;;;;;3.62;100.00;100541.31;5042919;28;20027;-81
2021/03/21 03:49:35;;;;;;;7.43;2.15;;;;;;;3.58;100.00;100530.16;5043431;28;20083;-81
2021/03/21 03:52:01;;;;;;;9.10;1.95;;;;;;;3.59;100.00;100531.00;5042597;28;20021;-81
2021/03/21 03:54:34;;;;;;;10.88;1.80;;;;;;;3.59;100.00;100523.31;5042362;28;20021;-82
2021/03/21 03:57:21;;;;;;;8.68;1.65;;;;;;;3.57;100.00;100513.06;5042036;28;20010;-81
2021/03/21 03:59:58;;;;;;;13.65;1.90;;;;;;;3.57;100.00;100517.31;5059526;28;20055;-82
2021/03/21 04:02:33;;;;;;;7.53;1.58;;;;;;;3.57;100.00;100510.50;5041080;28;20025;-81
2021/03/21 04:05:10;;;;;;;10.18;2.00;;;;;;;3.56;100.00;100510.47;5041831;28;20079;-81
2021/03/21 04:07:43;;;;;;;6.30;1.88;;;;;;;3.55;100.00;100503.63;5041523;28;20048;-81
2021/03/21 04:10:15;;;;;;;7.50;1.60;;;;;;;3.55;100.00;100498.50;5040433;28;20125;-81
2021/03/21 04:12:53;;;;;;;9.27;1.67;;;;;;;3.54;100.00;100505.34;5041238;28;20021;-81
2021/03/21 04:15:23;;;;;;;7.35;1.55;;;;;;;3.49;100.00;100503.56;5058907;28;20074;-81
2021/03/21 04:17:55;;;;;;;7.63;1.40;;;;;;;3.49;100.00;100504.44;5059858;28;20020;-81
2021/03/21 04:20:29;;;;;;;8.77;1.60;;;;;;;3.47;100.00;100498.41;5059110;28;20087;-81
2021/03/21 04:22:59;;;;;;;;;;;;;;;3.44;100.00;100500.94;5041479;28;20447;-81
2021/03/21 04:25:30;;;;;;;9.00;1.80;;;;;;;3.43;100.00;100500.09;5041725;28;19913;-81
2021/03/21 04:28:11;;;;;;;14.93;1.90;;;;;;;3.44;100.00;100504.38;5060076;28;20016;-81
2021/03/21 04:30:40;;;;;;;13.02;1.98;;;;;;;3.40;100.00;100499.22;5060177;28;20025;-81
2021/03/21 04:33:10;;;;;;;14.75;1.77;;;;;;;3.39;100.00;100488.09;5043106;28;20032;-81
2021/03/21 04:35:43;;;;;;;16.50;2.08;;;;;;;3.39;100.00;100490.66;5061372;28;20031;-82
2021/03/21 04:38:27;;;;;;;16.02;2.05;;;;;;;3.38;100.00;100486.34;5043440;28;20123;-82
2021/03/21 04:40:52;;;;;;;21.50;2.80;;;;;;;3.40;100.00;100488.94;5061182;28;20021;-81
2021/03/21 04:43:26;;;;;;;15.63;2.00;;;;;;;3.37;100.00;100484.66;5058418;28;20025;-81
2021/03/21 04:45:54;;;;;;;12.85;2.22;;;;;;;3.36;100.00;100492.34;5059156;28;20113;-81
2021/03/21 04:48:24;;;;;;;20.20;2.28;;;;;;;3.34;100.00;100484.63;5041031;28;20393;-82
2021/03/21 04:50:59;;;;;;;13.35;2.05;;;;;;;3.33;100.00;100485.47;5041266;28;20179;-82
2021/03/21 04:53:45;;;;;;;16.35;2.67;;;;;;;3.27;100.00;100482.84;5059345;28;20025;-82
2021/03/21 04:56:19;;;;;;;21.60;3.05;;;;;;;3.28;100.00;100494.81;5058769;28;20047;-81
2021/03/21 04:58:48;;;;;;;20.85;2.33;;;;;;;3.20;100.00;100493.84;5040064;28;20043;-81
2021/03/21 05:01:25;;;;;;;16.27;2.13;;;;;;;3.16;100.00;100516.03;5057880;28;20033;-82
2021/03/21 05:04:10;;;;;;;14.27;2.20;;;;;;;3.09;100.00;100518.53;5040048;28;20021;-81
2021/03/21 05:06:57;;;;;;;19.35;2.40;;;;;;;3.03;100.00;100514.19;5040235;28;20025;-81
2021/03/21 05:09:28;;;;;;;15.73;2.10;;;;;;;2.89;100.00;100519.13;5059221;28;20041;-82
2021/03/21 05:12:01;;;;;;;22.10;3.42;;;;;;;2.84;100.00;100515.66;5059848;28;20047;-82
2021/03/21 05:14:30;;;;;;;17.55;3.28;;;;;;;2.75;100.00;100533.47;5040554;28;20025;-81
2021/03/21 05:17:17;;;;;;;25.15;3.40;;;;;;;2.74;99.93;100544.53;5041665;28;20441;-81
2021/03/21 05:19:52;;;;;;;20.38;2.95;;;;;;;2.72;97.96;100533.44;5041663;28;20021;-81
2021/03/21 05:22:26;;;;;;;;;;;;;;;2.66;97.20;100546.16;5042267;28;20023;-81
2021/03/21 05:25:27;;;;;;;28.02;3.58;;;;;;;2.67;95.76;100545.31;5042495;28;19955;-81
2021/03/21 05:28:03;;;;;;;24.17;4.43;;;;;;;2.63;95.64;100549.53;5061822;28;20492;-82
2021/03/21 05:30:33;;;;;;;25.10;4.15;;;;;;;2.61;96.52;100537.53;5040961;28;20029;-82
2021/03/21 05:32:59;;;;;;;25.48;4.15;;;;;;;2.64;95.55;100550.38;5058172;28;20508;-82
2021/03/21 05:35:29;;;;;;;28.75;3.92;;;;;;;2.63;96.83;100549.53;5041411;28;20021;-82
2021/03/21 05:38:41;;;;;;;28.70;4.15;;;;;;;2.54;97.49;100534.03;5058481;28;20493;-82
2021/03/21 05:41:29;;;;;;;25.00;4.50;;;;;;;2.58;94.87;100517.03;5039721;28;20033;-82
2021/03/21 05:44:32;;;;;;;26.88;4.55;;;;;;;2.53;95.62;100507.59;5040120;28;20025;-82
2021/03/21 05:47:21;;;;;;;35.53;5.78;;;;;;;2.56;93.53;100522.13;5054686;28;20040;-82
2021/03/21 05:50:11;;;;;;;31.38;4.65;;;;;;;2.55;92.93;100522.97;5038955;28;20021;-81
2021/03/21 05:52:55;;;;;;;32.10;4.70;;;;;;;2.56;92.69;100528.97;5040387;28;20052;-81
2021/03/21 05:55:45;;;;;;;30.13;4.63;;;;;;;2.51;92.09;100513.53;5040463;28;20029;-81
2021/03/21 05:58:51;;;;;;;25.17;4.85;;;;;;;2.52;91.88;100534.03;5039841;28;20028;-81
2021/03/21 06:01:35;;;;;;;31.35;5.50;;;;;;;2.53;90.55;100548.53;5040727;28;20029;-81
2021/03/21 06:04:25;;;;;;;30.73;5.00;;;;;;;2.56;89.86;100552.84;5040434;28;20021;-81
2021/03/21 06:07:27;;;;;;;25.63;5.00;;;;;;;2.68;88.08;100550.47;5041379;28;20123;-82
2021/03/21 06:10:30;;;;;;;36.22;5.20;;;;;;;2.68;88.33;100558.16;5041393;28;20468;-81
2021/03/21 06:13:15;;;;;;;47.50;5.72;;;;;;;2.66;89.93;100549.56;5040259;28;20036;-81
2021/03/21 06:16:14;;;;;;;33.90;5.43;;;;;;;2.70;88.78;100558.16;5038781;28;20028;-81
2021/03/21 06:19:14;;;;;;;38.05;5.35;;;;;;;2.72;89.15;100570.16;5039299;28;20025;-81
2021/03/21 06:21:58;;;;;;;39.90;5.72;;;;;;;2.74;88.61;100557.34;5057522;28;20025;-82
2021/03/21 06:25:04;;;;;;;36.05;6.78;;;;;;;2.73;88.96;100582.09;5039314;28;20021;-82
2021/03/21 06:28:01;;;;;;;31.40;5.40;;;;;;;2.79;88.96;100565.97;5038745;28;20027;-81
2021/03/21 06:31:00;;;;;;;30.63;4.40;;;;;;;2.83;89.11;100583.09;5016402;28;20036;-80
2021/03/21 06:33:30;;;;;;;42.13;5.57;;;;;;;2.87;89.16;100582.31;5039911;28;20025;-82
2021/03/21 06:36:04;;;;;;;48.03;7.32;;;;;;;3.00;88.44;100573.06;5042925;28;20024;-82
2021/03/21 06:38:48;;;;;;;37.83;5.38;;;;;;;2.95;89.14;100569.59;5043745;28;20029;-82
2021/03/21 06:41:20;;;;;;;30.20;5.85;;;;;;;2.98;88.69;100575.59;5043377;28;20032;-81
2021/03/21 06:43:51;;;;;;;35.15;4.78;;;;;;;3.05;88.25;100575.69;5061811;28;20032;-81
2021/03/21 06:46:29;;;;;;;37.22;5.45;;;;;;;3.07;88.15;100587.66;5062939;28;20048;-81
2021/03/21 06:49:03;;;;;;;36.15;5.78;;;;;;;3.14;88.14;100580.91;5043949;28;20025;-81
2021/03/21 06:51:46;;;;;;;41.90;5.80;;;;;;;3.24;87.96;100582.78;5045529;28;20079;-82
2021/03/21 06:54:29;;;;;;;46.78;7.13;;;;;;;3.31;87.36;100591.38;5045532;28;20037;-82
2021/03/21 06:57:42;;;;;;;42.33;6.20;;;;;;;3.47;87.34;100595.84;5046092;28;20046;-82
2021/03/21 07:00:26;;;;;;;35.95;4.85;;;;;;;3.41;86.58;100603.47;4975525;28;20041;-82
2021/03/21 07:03:14;;;;;;;35.95;5.72;;;;;;;3.53;86.67;100610.44;5045368;28;20025;-82
2021/03/21 07:06:18;;;;;;;40.20;6.30;;;;;;;3.63;85.02;100594.31;5050134;28;20037;-82
2021/03/21 07:09:14;;;;;;;35.15;5.50;;;;;;;3.72;85.75;100604.66;5042444;28;20039;-82
2021/03/21 07:11:58;;;;;;;41.22;6.13;;;;;;;3.98;84.86;100598.94;5059772;28;20370;-83
2021/03/21 07:15:16;;;;;;;40.80;6.35;;;;;;;4.39;82.95;100612.13;5059648;28;20491;-83
2021/03/21 07:17:47;;;;;;;40.03;6.53;;;;;;;4.02;84.15;100593.84;5059746;28;20028;-83
2021/03/21 07:20:21;;;;;;;41.28;5.57;;;;;;;4.07;83.15;100581.91;5059619;28;20029;-83
2021/03/21 07:23:08;;;;;;;43.17;6.82;;;;;;;4.10;84.22;100591.34;5041776;28;20389;-82
2021/03/21 07:26:00;;;;;;;35.40;6.57;;;;;;;4.04;84.54;100591.31;5042769;28;20033;-82
2021/03/21 07:29:03;;;;;;;40.55;7.13;;;;;;;4.24;84.02;100610.28;5043694;28;20085;-82
2021/03/21 07:31:28;;;;;;;41.60;7.35;;;;;;;4.21;83.30;100607.69;5042522;28;20527;-83
2021/03/21 07:34:10;;;;;;;40.40;6.97;;;;;;;4.22;83.71;100606.84;5058369;28;20032;-83
2021/03/21 07:37:01;;;;;;;43.97;7.18;;;;;;;4.35;83.58;100612.94;5059384;28;20607;-82
2021/03/21 07:39:45;;;;;;;39.90;6.75;;;;;;;4.50;82.84;100601.94;5059235;28;20024;-83
2021/03/21 07:42:53;;;;;;;43.40;7.63;;;;;;;4.70;82.74;100595.22;5043291;28;20392;-82
2021/03/21 07:45:45;;;;;;;42.00;7.13;;;;;;;4.40;82.63;100585.56;5043216;28;20028;-82
2021/03/21 07:48:44;;;;;;;34.72;7.05;;;;;;;4.44;81.55;100583.91;5042960;28;20469;-82
2021/03/21 07:51:23;;;;;;;42.83;6.57;;;;;;;4.36;82.71;100589.84;5042722;28;20159;-82
2021/03/21 07:54:34;;;;;;;45.45;7.25;;;;;;;4.48;81.42;100593.34;5061187;28;20032;-82
2021/03/21 07:57:28;;;;;;;43.13;6.93;;;;;;;4.55;82.01;100595.09;5041090;28;20040;-82
2021/03/21 07:59:54;;;;;;;33.90;6.75;;;;;;;4.42;82.57;100593.31;5002665;28;20041;-82
2021/03/21 08:02:28;;;;;;;44.53;7.28;;;;;;;4.41;82.29;100591.59;5042826;28;20035;-82
2021/03/21 08:05:06;;;;;;;37.88;6.78;;;;;;;4.36;81.84;100591.56;5042331;28;20087;-82
2021/03/21 08:07:35;;;;;;;34.45;6.60;;;;;;;4.65;81.16;100585.75;5043074;28;20029;-82
2021/03/21 08:10:01;;;;;;;46.80;6.82;;;;;;;4.80;80.72;100598.69;5060754;28;20033;-82
2021/03/21 08:12:35;;;;;;;38.58;7.10;;;;;;;4.84;80.11;100590.16;5060743;28;20029;-82
2021/03/21 08:15:21;;;;;;;49.78;8.07;;;;;;;5.18;78.51;100592.91;5042049;28;20117;-82
2021/03/21 08:17:51;;;;;;;46.13;8.65;;;;;;;5.19;78.51;100587.75;5042008;28;20028;-82
2021/03/21 08:20:23;;;;;;;54.25;8.05;;;;;;;5.29;78.04;100597.22;5041636;28;20526;-82
2021/03/21 08:22:54;;;;;;;49.88;8.90;;;;;;;5.04;79.30;100596.25;5042695;28;20025;-83
2021/03/21 08:25:27;;;;;;;41.70;6.88;;;;;;;5.00;79.35;100591.97;5041972;28;20071;-84
2021/03/21 08:27:56;;;;;;;41.92;6.95;;;;;;;5.70;77.29;100609.38;5037860;28;20020;-85
2021/03/21 08:30:26;;;;;;;45.15;6.72;;;;;;;5.61;76.87;100622.22;5038005;28;20020;-84
2021/03/21 08:32:57;;;;;;;39.50;8.32;;;;;;;5.61;77.26;100623.94;5037861;28;20112;-85
2021/03/21 08:35:29;;;;;;;48.20;8.35;;;;;;;5.82;75.94;100615.38;5037592;28;20036;-84
2021/03/21 08:37:57;;;;;;;51.25;8.88;;;;;;;5.41;76.46;100616.97;5055969;28;20021;-85
2021/03/21 08:40:31;;;;;;;38.42;7.47;;;;;;;5.65;75.71;100631.66;5038546;28;20071;-83
2021/03/21 08:43:17;;;;;;;40.42;6.28;;;;;;;5.61;75.26;100626.50;5058638;28;20029;-83
2021/03/21 08:45:49;;;;;;;47.28;6.72;;;;;;;5.73;75.28;100635.13;5056573;28;20025;-84
2021/03/21 08:48:21;;;;;;;36.67;6.60;;;;;;;5.85;73.66;100628.25;5037850;28;20455;-84
2021/03/21 08:50:53;;;;;;;48.25;7.97;;;;;;;5.90;74.43;100624.84;5038495;28;20167;-84
2021/03/21 08:53:40;;;;;;;49.75;6.35;;;;;;;6.37;72.77;100630.94;5037792;28;20024;-83
2021/03/21 08:56:15;;;;;;;34.83;7.45;;;;;;;6.91;70.87;100627.44;5055130;28;20112;-83
2021/03/21 08:58:41;;;;;;;36.78;6.80;;;;;;;7.47;69.19;100632.44;5056254;28;20374;-84
2021/03/21 09:01:16;;;;;;;36.55;6.57;;;;;;;7.12;68.99;100631.69;5056744;28;20079;-84
2021/03/21 09:03:42;;;;;;;38.17;7.72;;;;;;;7.61;68.20;100631.50;5039390;28;20027;-84
2021/03/21 09:06:24;;;;;;;30.90;6.32;;;;;;;7.95;65.42;100633.03;5039401;28;20476;-83
2021/03/21 09:08:50;;;;;;;32.88;6.22;;;;;;;7.43;66.58;100644.50;5038975;28;20040;-84
2021/03/21 09:11:15;;;;;;;28.10;5.00;;;;;;;6.73;68.84;100637.78;5039584;28;20025;-84
2021/03/21 09:13:40;;;;;;;24.90;5.57;;;;;;;6.34;69.14;100642.13;5038933;28;20477;-84
2021/03/21 09:16:10;;;;;;;36.10;5.78;;;;;;;6.30;69.63;100644.69;5057169;28;20023;-82
2021/03/21 09:18:43;;;;;;;29.67;5.30;;;;;;;6.62;69.68;100648.13;5040208;28;20024;-84
2021/03/21 09:21:20;;;;;;;39.13;7.35;;;;;;;7.23;69.09;100638.53;5059481;28;20021;-83
2021/03/21 09:23:58;;;;;;;33.58;7.05;;;;;;;6.73;69.55;100642.09;5042495;28;20029;-83
2021/03/21 09:26:26;;;;;;;36.70;6.28;;;;;;;6.95;69.82;100654.06;5042476;28;20102;-82
2021/03/21 09:28:55;;;;;;;38.78;7.05;;;;;;;6.90;69.04;100650.66;5042970;28;20108;-83
2021/03/21 09:31:21;;;;;;;31.73;6.40;;;;;;;7.04;67.01;100660.94;5040400;28;20056;-84
2021/03/21 09:33:59;;;;;;;37.60;6.55;;;;;;;6.71;68.36;100649.81;5041133;28;20017;-84
2021/03/21 09:36:30;;;;;;;35.05;5.50;;;;;;;6.79;67.66;100657.53;5059283;28;20028;-83
2021/03/21 09:39:00;;;;;;;45.38;6.68;;;;;;;7.40;66.75;100667.72;5043197;28;20027;-83
2021/03/21 09:41:28;;;;;;;35.20;5.47;;;;;;;8.40;64.40;100675.81;5038990;28;20025;-84
2021/03/21 09:44:03;;;;;;;30.27;5.88;;;;;;;7.37;65.60;100684.06;5038500;28;20021;-84
2021/03/21 09:46:45;;;;;;;27.20;5.45;;;;;;;7.37;66.90;100686.66;5038880;28;20017;-84
2021/03/21 09:49:54;;;;;;;27.08;5.35;;;;;;;7.50;65.35;100690.03;5041714;28;20465;-83
2021/03/21 09:52:31;;;;;;;27.70;5.32;;;;;;;7.34;65.08;100689.22;5042326;28;20034;-82
2021/03/21 09:55:12;;;;;;;24.40;4.55;;;;;;;7.76;64.11;100687.38;5043290;28;20024;-83
2021/03/21 09:57:59;;;;;;;21.98;3.70;;;;;;;7.25;64.31;100686.69;5040870;28;20092;-82
2021/03/21 10:00:29;;;;;;;27.33;4.65;;;;;;;7.74;64.05;100686.50;5040877;28;20370;-81
2021/03/21 10:03:09;;;;;;;32.63;6.18;;;;;;;8.43;62.98;100693.88;5039956;28;20031;-82
2021/03/21 10:05:48;;;;;;;28.08;6.00;;;;;;;7.90;63.93;100687.28;5059306;28;20112;-82
2021/03/21 10:08:44;;;;;;;24.05;4.45;;;;;;;7.86;61.43;100683.00;5059585;28;20020;-82
2021/03/21 10:11:15;;;;;;;22.33;4.63;;;;;;;7.70;61.42;100682.22;5041462;28;20029;-82
2021/03/21 10:13:45;;;;;;;30.02;6.38;;;;;;;7.68;62.79;100683.09;5042068;28;20060;-84
2021/03/21 10:16:29;;;;;;;24.27;5.65;;;;;;;7.79;63.12;100694.25;5038135;28;20017;-84
2021/03/21 10:18:58;;;;;;;20.65;5.15;;;;;;;8.30;62.31;100692.22;5054976;28;20033;-84
2021/03/21 10:21:23;;;;;;;22.70;4.80;;;;;;;9.47;58.91;100692.03;5037828;28;20033;-84
2021/03/21 10:23:49;;;;;;;26.87;5.00;;;;;;;8.79;59.09;100706.53;5056770;28;20100;-81
2021/03/21 10:26:16;;;;;;;17.60;4.10;;;;;;;8.18;59.46;100710.38;5037063;28;20283;-81
2021/03/21 10:28:51;;;;;;;19.27;4.07;;;;;;;7.83;60.67;100701.97;5055262;28;20064;-81
2021/03/21 10:31:23;;;;;;;23.88;4.45;;;;;;;8.39;60.64;100715.44;5038187;28;20043;-81
2021/03/21 10:33:50;;;;;;;24.10;4.55;;;;;;;8.30;60.33;100711.16;5038935;28;20496;-81
2021/03/21 10:36:41;;;;;;;23.40;4.70;;;;;;;8.61;59.48;100716.16;5039418;28;20407;-81
2021/03/21 10:39:41;;;;;;;24.15;3.95;;;;;;;7.61;60.91;100719.25;5053337;28;20032;-81
2021/03/21 10:42:14;;;;;;;22.70;3.90;;;;;;;7.65;61.59;100709.78;5054690;28;20443;-80
2021/03/21 10:44:39;;;;;;;18.38;3.75;;;;;;;7.51;61.50;100724.44;5036781;28;20033;-83
2021/03/21 10:47:27;;;;;;;18.42;3.95;;;;;;;7.64;61.31;100727.88;5054250;28;20032;-84
2021/03/21 10:49:53;;;;;;;19.58;3.90;;;;;;;7.74;61.32;100725.22;5054360;28;20397;-83
2021/03/21 10:52:27;;;;;;;22.08;5.65;;;;;;;7.77;60.83;100734.69;5054156;28;20040;-83
2021/03/21 10:55:26;;;;;;;16.30;3.50;;;;;;;8.23;60.04;100732.75;5036689;28;20029;-84
2021/03/21 10:57:52;;;;;;;17.40;3.97;;;;;;;8.26;60.09;100740.47;5021939;28;20028;-84
2021/03/21 11:00:26;;;;;;;16.92;3.95;;;;;;;8.53;59.42;100730.88;5035914;28;20112;-84
2021/03/21 11:03:00;;;;;;;17.75;3.80;;;;;;;7.90;60.16;100736.34;5054574;28;20031;-83
2021/03/21 11:05:35;;;;;;;20.88;3.85;;;;;;;8.30;59.82;100741.31;5054187;28;20025;-84
2021/03/21 11:08:12;;;;;;;21.23;4.88;;;;;;;8.63;58.78;100736.84;5036456;28;20040;-84
2021/03/21 11:10:48;;;;;;;20.92;4.00;;;;;;;8.14;60.62;100737.09;5036525;28;20029;-84
2021/03/21 11:13:26;;;;;;;21.98;3.72;;;;;;;7.93;60.64;100730.31;5037076;28;20420;-83
2021/03/21 11:15:52;;;;;;;19.25;2.70;;;;;;;7.90;59.72;100738.09;5049626;28;20024;-83
2021/03/21 11:18:24;;;;;;;18.50;3.65;;;;;;;7.50;62.04;100741.66;5038026;28;20350;-84
2021/03/21 11:21:09;;;;;;;23.42;4.57;;;;;;;8.23;59.91;100749.97;5041302;28;20024;-83
2021/03/21 11:23:53;;;;;;;20.45;4.65;;;;;;;8.26;59.75;100747.38;5041891;28;20024;-83
2021/03/21 11:26:24;;;;;;;20.50;4.35;;;;;;;8.71;58.99;100750.53;5042989;28;20036;-82
2021/03/21 11:29:11;;;;;;;21.80;4.22;;;;;;;8.18;60.15;100744.81;5061006;28;20025;-83
2021/03/21 11:31:49;;;;;;;22.13;3.88;;;;;;;8.58;58.51;100748.94;5059190;28;20060;-83
2021/03/21 11:34:19;;;;;;;20.27;4.10;;;;;;;7.74;60.54;100751.06;5060449;28;20392;-83
2021/03/21 11:36:46;;;;;;;19.77;3.70;;;;;;;8.15;58.29;100743.97;5042458;28;20113;-83
2021/03/21 11:39:18;;;;;;;21.67;4.40;;;;;;;9.01;57.40;100740.81;5060771;28;20029;-82
2021/03/21 11:41:43;;;;;;;21.55;4.25;;;;;;;9.64;55.37;100730.69;5044282;28;20025;-83
2021/03/21 11:44:26;;;;;;;20.17;3.72;;;;;;;10.72;53.11;100730.97;5062196;28;20028;-82
2021/03/21 11:46:54;;;;;;;16.50;3.50;;;;;;;10.80;52.96;100731.66;5062385;28;20025;-83
2021/03/21 11:49:22;;;;;;;24.45;4.00;;;;;;;8.92;56.19;100740.03;5061817;28;20036;-82
2021/03/21 11:51:56;;;;;;;21.65;3.92;;;;;;;8.74;57.75;100751.41;5045192;28;20028;-82
2021/03/21 11:54:23;;;;;;;18.38;3.53;;;;;;;8.73;57.75;100754.00;5044110;28;20028;-82
2021/03/21 11:57:27;;;;;;;14.30;3.30;;;;;;;8.24;58.44;100749.09;5062251;28;20032;-81
2021/03/21 12:00:12;;;;;;;14.73;3.30;;;;;;;8.23;57.76;100743.09;5037665;28;20032;-80
2021/03/21 12:02:49;;;;;;;19.10;4.05;;;;;;;8.69;57.62;100745.41;5061254;28;20036;-81
2021/03/21 12:05:20;;;;;;;19.85;3.55;;;;;;;8.49;58.19;100742.09;5044621;28;20029;-81
2021/03/21 12:07:46;;;;;;;20.65;3.78;;;;;;;9.75;54.30;100736.59;5061772;28;20107;-81